createdAt,value
2023-03-02T00:01:58.472Z,58.88
2023-03-02T00:04:34.153Z,58.41
2023-03-02T00:07:07.823Z,58.67
2023-03-02T00:09:38.805Z,59.26
2023-03-02T00:12:08.878Z,58.46
2023-03-02T00:14:37.950Z,59.01
2023-03-02T00:17:07.853Z,59.22
2023-03-02T00:19:36.460Z,58.96
2023-03-02T00:22:05.167Z,58.70
2023-03-02T00:24:33.703Z,58.18
2023-03-02T00:27:03.242Z,58.61
2023-03-02T00:29:31.341Z,59.27
2023-03-02T00:31:59.834Z,59.51
2023-03-02T00:34:28.061Z,59.90
2023-03-02T00:36:56.995Z,60.16
2023-03-02T00:39:25.237Z,60.44
2023-03-02T00:41:53.335Z,61.04
2023-03-02T00:44:22.800Z,59.91
2023-03-02T00:46:50.960Z,60.52
2023-03-02T00:49:19.175Z,60.61
2023-03-02T00:51:47.355Z,60.49
2023-03-02T00:54:15.677Z,60.45
2023-03-02T00:56:44.111Z,59.74
2023-03-02T00:59:26.234Z,59.48
2023-03-02T01:01:58.269Z,58.77
2023-03-02T01:04:29.642Z,58.63
2023-03-02T01:06:58.113Z,59.11
2023-03-02T01:09:26.425Z,59.31
2023-03-02T01:11:55.246Z,60.36
2023-03-02T01:14:24.149Z,60.53
2023-03-02T01:16:52.440Z,60.23
2023-03-02T01:19:22.031Z,60.14
2023-03-02T01:21:50.472Z,60.54
2023-03-02T01:24:18.787Z,60.58
2023-03-02T01:26:46.997Z,60.76
2023-03-02T01:29:16.017Z,60.33
2023-03-02T01:31:44.173Z,60.18
2023-03-02T01:34:12.411Z,59.12
2023-03-02T01:36:45.478Z,59.80
2023-03-02T01:39:15.848Z,60.12
2023-03-02T01:41:44.950Z,60.42
2023-03-02T01:44:39.544Z,61.40
2023-03-02T01:47:15.542Z,61.07
2023-03-02T01:49:50.813Z,61.88
2023-03-02T01:52:21.421Z,62.70
2023-03-02T01:54:52.526Z,62.93
2023-03-02T01:57:27.258Z,62.25
2023-03-02T02:00:02.670Z,61.89
2023-03-02T02:02:30.919Z,61.55
2023-03-02T02:04:59.572Z,62.50
2023-03-02T02:07:29.117Z,63.25
2023-03-02T02:09:58.466Z,63.35
2023-03-02T02:12:26.615Z,63.66
2023-03-02T02:14:55.797Z,63.23
2023-03-02T02:17:23.993Z,63.68
2023-03-02T02:20:07.573Z,63.57
2023-03-02T02:22:55.982Z,63.52
2023-03-02T02:25:44.359Z,63.50
2023-03-02T02:28:22.600Z,64.05
2023-03-02T02:31:07.996Z,64.15
2023-03-02T02:33:39.772Z,64.17
2023-03-02T02:36:15.604Z,64.11
2023-03-02T02:38:47.887Z,63.87
2023-03-02T02:41:22.816Z,63.73
2023-03-02T02:43:53.004Z,63.87
2023-03-02T02:46:21.599Z,64.17
2023-03-02T02:48:49.766Z,64.16
2023-03-02T02:51:24.632Z,62.85
2023-03-02T02:53:59.876Z,62.70
2023-03-02T02:56:31.860Z,62.48
2023-03-02T02:59:08.006Z,62.12
2023-03-02T03:01:36.696Z,61.98
2023-03-02T03:04:07.387Z,61.74
2023-03-02T03:06:42.465Z,62.02
2023-03-02T03:09:13.169Z,62.71
2023-03-02T03:11:46.518Z,63.12
2023-03-02T03:14:18.962Z,63.03
2023-03-02T03:16:49.855Z,63.14
2023-03-02T03:19:22.985Z,63.03
2023-03-02T03:21:55.316Z,63.31
2023-03-02T03:24:24.671Z,63.05
2023-03-02T03:26:54.153Z,63.29
2023-03-02T03:29:26.162Z,62.30
2023-03-02T03:31:57.274Z,62.79
2023-03-02T03:34:26.732Z,62.91
2023-03-02T03:37:02.006Z,62.95
2023-03-02T03:39:31.744Z,63.16
2023-03-02T03:41:59.860Z,62.67
2023-03-02T03:44:30.115Z,62.49
2023-03-02T03:46:58.705Z,63.26
2023-03-02T03:49:27.202Z,63.81
2023-03-02T03:51:55.808Z,63.28
2023-03-02T03:54:23.992Z,63.52
2023-03-02T03:56:52.487Z,63.98
2023-03-02T03:59:24.625Z,63.24
2023-03-02T04:01:57.087Z,63.75
2023-03-02T04:04:29.185Z,63.88
2023-03-02T04:06:57.900Z,62.83
2023-03-02T04:09:27.175Z,63.64
2023-03-02T04:11:57.160Z,63.75
2023-03-02T04:14:26.110Z,64.31
2023-03-02T04:16:55.702Z,64.45
2023-03-02T04:19:24.836Z,64.67
2023-03-02T04:21:55.646Z,64.88
2023-03-02T04:24:25.298Z,64.85
2023-03-02T04:26:53.630Z,64.43
2023-03-02T04:29:21.810Z,64.35
2023-03-02T04:31:49.957Z,64.32
2023-03-02T04:34:19.469Z,64.86
2023-03-02T04:36:47.807Z,65.29
2023-03-02T04:39:18.845Z,65.44
2023-03-02T04:41:48.307Z,65.51
2023-03-02T04:44:17.735Z,65.04
2023-03-02T04:46:47.284Z,65.32
2023-03-02T04:49:16.912Z,65.23
2023-03-02T04:51:49.445Z,65.18
2023-03-02T04:54:21.137Z,65.60
2023-03-02T04:56:51.391Z,65.90
2023-03-02T04:59:22.411Z,65.98
2023-03-02T05:01:50.867Z,65.34
2023-03-02T05:04:19.852Z,64.13
2023-03-02T05:06:49.424Z,63.23
2023-03-02T05:09:17.996Z,63.52
2023-03-02T05:11:46.215Z,63.54
2023-03-02T05:14:14.882Z,63.11
2023-03-02T05:16:43.668Z,63.05
2023-03-02T05:19:13.659Z,63.71
2023-03-02T05:21:41.990Z,63.89
2023-03-02T05:24:14.821Z,64.14
2023-03-02T05:26:43.270Z,63.94
2023-03-02T05:29:11.432Z,63.87
2023-03-02T05:31:42.282Z,63.62
2023-03-02T05:34:14.199Z,62.65
2023-03-02T05:36:42.319Z,62.96
2023-03-02T05:39:12.186Z,62.63
2023-03-02T05:41:42.318Z,62.92
2023-03-02T05:44:12.009Z,62.70
2023-03-02T05:46:41.147Z,63.05
2023-03-02T05:49:10.498Z,63.57
2023-03-02T05:51:38.641Z,64.55
2023-03-02T05:54:06.906Z,64.67
2023-03-02T05:56:36.413Z,64.68
2023-03-02T05:59:04.568Z,63.70
2023-03-02T06:01:33.011Z,63.57
2023-03-02T06:04:01.377Z,63.24
2023-03-02T06:06:29.906Z,63.00
2023-03-02T06:08:58.432Z,63.43
2023-03-02T06:11:26.550Z,63.61
2023-03-02T06:13:56.000Z,62.98
2023-03-02T06:16:24.243Z,63.29
2023-03-02T06:18:52.446Z,63.82
2023-03-02T06:21:20.568Z,64.92
2023-03-02T06:23:48.694Z,65.17
2023-03-02T06:26:16.823Z,64.86
2023-03-02T06:28:53.939Z,63.93
2023-03-02T06:31:23.738Z,62.04
2023-03-02T06:33:52.063Z,61.98
2023-03-02T06:36:20.409Z,62.75
2023-03-02T06:38:48.632Z,62.30
2023-03-02T06:41:17.423Z,61.99
2023-03-02T06:43:46.220Z,62.25
2023-03-02T06:46:14.698Z,62.27
2023-03-02T06:48:44.286Z,61.01
2023-03-02T06:51:12.791Z,60.69
2023-03-02T06:53:40.955Z,60.10
2023-03-02T06:56:09.555Z,60.34
2023-03-02T06:58:38.507Z,60.86
2023-03-02T07:01:08.760Z,61.24
2023-03-02T07:03:37.309Z,60.87
2023-03-02T07:06:07.836Z,60.70
2023-03-02T07:08:36.249Z,60.37
2023-03-02T07:11:07.539Z,59.84
2023-03-02T07:13:35.754Z,59.48
2023-03-02T07:16:08.816Z,59.90
2023-03-02T07:18:37.102Z,59.90
2023-03-02T07:21:07.537Z,58.52
2023-03-02T07:23:36.120Z,59.54
2023-03-02T07:26:08.244Z,58.58
2023-03-02T07:28:39.334Z,59.10
2023-03-02T07:31:08.031Z,58.14
2023-03-02T07:33:36.465Z,57.91
2023-03-02T07:36:07.366Z,57.52
2023-03-02T07:38:36.955Z,57.73
2023-03-02T07:41:08.882Z,58.02
2023-03-02T07:43:37.147Z,57.93
2023-03-02T07:46:05.905Z,57.31
2023-03-02T07:48:34.806Z,57.11
2023-03-02T07:51:07.218Z,56.67
2023-03-02T07:53:35.513Z,57.10
2023-03-02T07:56:09.273Z,56.05
2023-03-02T07:58:38.281Z,56.26
2023-03-02T08:01:07.093Z,56.25
2023-03-02T08:03:35.511Z,55.78
2023-03-02T08:06:09.191Z,55.40
2023-03-02T08:08:38.628Z,55.39
2023-03-02T08:11:08.925Z,55.03
2023-03-02T08:13:37.371Z,54.10
2023-03-02T08:16:09.365Z,54.43
2023-03-02T08:18:38.930Z,54.42
2023-03-02T08:21:13.594Z,53.72
2023-03-02T08:23:41.931Z,53.77
2023-03-02T08:26:13.169Z,54.17
2023-03-02T08:28:42.402Z,54.15
2023-03-02T08:31:11.679Z,53.66
2023-03-02T08:33:40.216Z,53.34
2023-03-02T08:36:14.706Z,52.75
2023-03-02T08:38:43.614Z,53.23
2023-03-02T08:41:15.605Z,52.88
2023-03-02T08:43:44.193Z,53.08
2023-03-02T08:46:14.419Z,52.87
2023-03-02T08:48:42.756Z,52.51
2023-03-02T08:51:16.854Z,51.85
2023-03-02T08:53:48.210Z,52.10
2023-03-02T08:56:22.204Z,52.25
2023-03-02T08:58:52.524Z,52.37
2023-03-02T09:01:24.532Z,51.39
2023-03-02T09:03:53.539Z,51.28
2023-03-02T09:06:23.355Z,50.75
2023-03-02T09:08:51.601Z,49.60
2023-03-02T09:11:20.391Z,49.36
2023-03-02T09:13:48.743Z,49.22
2023-03-02T09:16:20.279Z,48.50
2023-03-02T09:18:48.571Z,48.76
2023-03-02T09:21:16.872Z,48.07
2023-03-02T09:23:46.477Z,47.91
2023-03-02T09:26:14.908Z,48.38
2023-03-02T09:28:43.142Z,48.10
2023-03-02T09:31:13.025Z,47.81
2023-03-02T09:33:41.892Z,47.87
2023-03-02T09:36:13.065Z,48.03
2023-03-02T09:38:41.176Z,47.23
2023-03-02T09:41:34.984Z,47.50
2023-03-02T09:44:26.080Z,47.74
2023-03-02T09:47:01.099Z,45.95
2023-03-02T09:49:46.240Z,46.26
2023-03-02T09:52:30.946Z,46.19
2023-03-02T09:55:10.066Z,46.40
2023-03-02T09:57:40.838Z,46.26
2023-03-02T10:00:19.234Z,46.10
2023-03-02T10:02:51.193Z,45.77
2023-03-02T10:05:23.848Z,45.91
2023-03-02T10:07:52.006Z,45.21
2023-03-02T10:10:36.090Z,45.13
2023-03-02T10:13:23.352Z,45.07
2023-03-02T10:16:14.142Z,45.14
2023-03-02T10:18:50.338Z,45.08
2023-03-02T10:21:27.901Z,44.90
2023-03-02T10:24:06.683Z,44.40
2023-03-02T10:26:41.958Z,44.62
2023-03-02T10:29:46.483Z,44.76
2023-03-02T10:32:24.351Z,45.17
2023-03-02T10:34:54.512Z,45.24
2023-03-02T10:37:25.900Z,45.38
2023-03-02T10:39:54.041Z,45.37
2023-03-02T10:42:29.695Z,45.33
2023-03-02T10:45:10.169Z,44.75
2023-03-02T10:47:38.369Z,45.03
2023-03-02T10:50:22.985Z,44.91
2023-03-02T10:52:59.951Z,44.83
2023-03-02T10:55:29.455Z,44.83
2023-03-02T10:58:07.003Z,44.83
2023-03-02T11:00:36.960Z,45.09
2023-03-02T11:03:21.665Z,45.21
2023-03-02T11:05:50.157Z,45.09
2023-03-02T11:08:21.057Z,45.46
2023-03-02T11:10:58.283Z,45.28
2023-03-02T11:13:32.227Z,45.38
2023-03-02T11:16:04.065Z,44.90
2023-03-02T11:18:38.476Z,44.76
2023-03-02T11:21:12.765Z,44.78
2023-03-02T11:23:58.820Z,44.49
2023-03-02T11:26:35.475Z,44.92
2023-03-02T11:29:14.480Z,44.29
2023-03-02T11:31:50.268Z,45.04
2023-03-02T11:34:38.161Z,45.01
2023-03-02T11:37:18.006Z,44.42
2023-03-02T11:40:06.199Z,45.02
2023-03-02T11:42:39.795Z,45.19
2023-03-02T11:45:21.603Z,45.37
2023-03-02T11:48:02.826Z,45.02
2023-03-02T11:50:35.254Z,45.33
2023-03-02T11:53:15.386Z,45.45
2023-03-02T11:55:48.479Z,45.52
2023-03-02T11:58:21.804Z,45.45
2023-03-02T12:00:52.436Z,45.10
2023-03-02T12:03:38.512Z,45.37
2023-03-02T12:06:26.766Z,45.24
2023-03-02T12:09:09.261Z,45.43
2023-03-02T12:11:41.153Z,44.42
2023-03-02T12:14:31.027Z,44.61
2023-03-02T12:17:21.544Z,43.76
2023-03-02T12:19:54.480Z,44.21
2023-03-02T12:22:32.427Z,44.68
2023-03-02T12:25:05.853Z,45.40
2023-03-02T12:27:41.985Z,45.71
2023-03-02T12:30:26.803Z,45.72
2023-03-02T12:33:19.914Z,46.03
2023-03-02T12:35:57.066Z,45.63
2023-03-02T12:38:33.804Z,45.55
2023-03-02T12:41:22.367Z,45.71
2023-03-02T12:44:15.897Z,45.63
2023-03-02T12:46:48.300Z,44.87
2023-03-02T12:49:29.603Z,43.25
2023-03-02T12:52:02.070Z,42.14
2023-03-02T12:54:32.979Z,41.19
2023-03-02T12:57:08.918Z,41.58
2023-03-02T12:59:38.072Z,42.61
2023-03-02T13:02:15.534Z,43.11
2023-03-02T13:04:43.866Z,42.99
2023-03-02T13:07:25.674Z,42.99
2023-03-02T13:09:57.222Z,43.44
2023-03-02T13:12:29.136Z,43.59
2023-03-02T13:14:59.999Z,44.26
2023-03-02T13:17:31.320Z,44.62
2023-03-02T13:20:01.793Z,44.41
2023-03-02T13:22:31.910Z,44.15
2023-03-02T13:25:03.560Z,43.49
2023-03-02T13:27:33.801Z,44.55
2023-03-02T13:30:12.551Z,44.54
2023-03-02T13:32:43.143Z,44.79
2023-03-02T13:35:24.408Z,45.14
2023-03-02T13:38:05.429Z,45.16
2023-03-02T13:40:44.622Z,45.31
2023-03-02T13:43:24.610Z,45.24
2023-03-02T13:45:56.173Z,45.13
2023-03-02T13:48:24.723Z,45.80
2023-03-02T13:50:57.910Z,45.17
2023-03-02T13:53:30.051Z,45.65
2023-03-02T13:56:01.172Z,44.93
2023-03-02T13:58:32.787Z,44.91
2023-03-02T14:01:00.910Z,45.26
2023-03-02T14:03:32.007Z,45.21
2023-03-02T14:06:01.212Z,45.71
2023-03-02T14:08:30.589Z,46.48
2023-03-02T14:11:01.753Z,47.21
2023-03-02T14:13:38.612Z,48.07
2023-03-02T14:16:08.069Z,48.24
2023-03-02T14:18:41.069Z,48.17
2023-03-02T14:21:14.365Z,48.85
2023-03-02T14:23:44.463Z,49.26
2023-03-02T14:26:33.097Z,49.29
2023-03-02T14:29:05.727Z,49.36
2023-03-02T14:31:34.733Z,49.26
2023-03-02T14:34:03.018Z,49.29
2023-03-02T14:36:34.927Z,49.62
2023-03-02T14:39:14.640Z,49.93
2023-03-02T14:41:52.791Z,49.91
2023-03-02T14:44:22.979Z,49.48
2023-03-02T14:46:51.448Z,49.98
2023-03-02T14:49:19.514Z,50.09
2023-03-02T14:51:58.996Z,50.22
2023-03-02T14:54:34.054Z,50.26
2023-03-02T14:57:02.326Z,49.76
2023-03-02T14:59:30.406Z,49.31
2023-03-02T15:02:02.961Z,49.48
2023-03-02T15:04:36.214Z,49.67
2023-03-02T15:07:04.719Z,50.03
2023-03-02T15:09:34.222Z,50.30
2023-03-02T15:12:02.487Z,50.90
2023-03-02T15:14:30.583Z,51.08
2023-03-02T15:16:58.724Z,51.51
2023-03-02T15:19:26.831Z,51.22
2023-03-02T15:21:56.228Z,51.36
2023-03-02T15:24:27.005Z,51.33
2023-03-02T15:26:56.470Z,51.73
2023-03-02T15:29:24.602Z,51.56
2023-03-02T15:31:52.835Z,51.49
2023-03-02T15:34:21.055Z,51.72
2023-03-02T15:36:49.177Z,51.68
2023-03-02T15:39:17.660Z,51.52
2023-03-02T15:41:45.788Z,51.71
2023-03-02T15:44:21.820Z,51.64
2023-03-02T15:46:51.558Z,52.55
2023-03-02T15:49:22.658Z,53.32
2023-03-02T15:51:51.475Z,53.55
2023-03-02T15:54:20.128Z,53.95
2023-03-02T15:56:51.898Z,53.77
2023-03-02T15:59:23.624Z,53.34
2023-03-02T16:01:51.644Z,53.82
2023-03-02T16:04:20.255Z,54.39
2023-03-02T16:06:48.350Z,54.08
2023-03-02T16:09:16.418Z,54.16
2023-03-02T16:11:44.582Z,54.97
2023-03-02T16:14:15.480Z,54.34
2023-03-02T16:16:45.907Z,54.96
2023-03-02T16:19:18.981Z,55.62
2023-03-02T16:21:47.929Z,55.63
2023-03-02T16:24:27.282Z,56.04
2023-03-02T16:26:55.485Z,56.01
2023-03-02T16:29:24.116Z,56.08
2023-03-02T16:31:53.924Z,56.51
2023-03-02T16:34:22.054Z,56.29
2023-03-02T16:36:50.242Z,57.11
2023-03-02T16:39:18.357Z,57.83
2023-03-02T16:41:46.950Z,57.87
2023-03-02T16:44:16.081Z,58.19
2023-03-02T16:46:44.898Z,58.25
2023-03-02T16:49:15.442Z,58.97
2023-03-02T16:51:44.358Z,59.76
2023-03-02T16:54:16.467Z,59.85
2023-03-02T16:56:47.137Z,60.12
2023-03-02T16:59:15.329Z,60.36
2023-03-02T17:01:43.773Z,60.23
2023-03-02T17:04:12.054Z,59.16
2023-03-02T17:06:59.756Z,64.04
2023-03-02T17:09:41.330Z,66.27
2023-03-02T17:12:09.683Z,68.46
2023-03-02T17:14:37.829Z,70.57
2023-03-02T17:17:05.970Z,71.64
2023-03-02T17:19:34.332Z,73.29
2023-03-02T17:22:05.021Z,74.20
2023-03-02T17:24:34.552Z,75.01
2023-03-02T17:27:03.403Z,75.53
2023-03-02T17:29:32.356Z,76.38
2023-03-02T17:32:00.537Z,76.40
2023-03-02T17:34:31.217Z,76.71
2023-03-02T17:37:00.530Z,77.02
2023-03-02T17:39:30.568Z,77.20
2023-03-02T17:41:58.805Z,77.76
2023-03-02T17:44:27.490Z,78.18
2023-03-02T17:46:55.676Z,79.06
2023-03-02T17:49:23.978Z,78.95
2023-03-02T17:51:52.111Z,79.38
2023-03-02T17:54:20.230Z,79.67
2023-03-02T17:56:49.810Z,79.90
2023-03-02T17:59:17.946Z,79.82
2023-03-02T18:01:46.113Z,79.68
2023-03-02T18:04:14.509Z,79.90
2023-03-02T18:06:42.678Z,80.04
2023-03-02T18:09:11.146Z,79.63
2023-03-02T18:11:41.310Z,78.90
2023-03-02T18:14:16.044Z,79.26
2023-03-02T18:16:44.453Z,78.99
2023-03-02T18:19:13.177Z,79.36
2023-03-02T18:21:43.105Z,79.79
2023-03-02T18:24:11.307Z,79.78
2023-03-02T18:26:39.722Z,79.87
2023-03-02T18:29:07.954Z,79.36
2023-03-02T18:31:37.403Z,79.33
2023-03-02T18:34:05.929Z,79.74
2023-03-02T18:36:34.093Z,80.71
2023-03-02T18:39:03.924Z,80.78
2023-03-02T18:41:32.404Z,80.87
2023-03-02T18:44:01.294Z,80.74
2023-03-02T18:46:32.551Z,80.76
2023-03-02T18:49:04.128Z,81.08
2023-03-02T18:51:32.771Z,80.81
2023-03-02T18:54:00.828Z,81.33
2023-03-02T18:56:28.880Z,81.45
2023-03-02T18:58:57.032Z,81.49
2023-03-02T19:01:25.192Z,80.89
2023-03-02T19:03:56.745Z,80.46
2023-03-02T19:06:26.262Z,80.99
2023-03-02T19:08:54.377Z,81.69
2023-03-02T19:11:22.543Z,81.09
2023-03-02T19:13:50.625Z,81.17
2023-03-02T19:16:18.835Z,81.06
2023-03-02T19:18:48.560Z,80.93
2023-03-02T19:21:17.128Z,81.55
2023-03-02T19:23:47.536Z,82.63
2023-03-02T19:26:15.844Z,82.67
2023-03-02T19:28:44.069Z,82.22
2023-03-02T19:31:12.600Z,82.05
2023-03-02T19:33:42.184Z,81.33
2023-03-02T19:36:10.908Z,81.57
2023-03-02T19:38:41.523Z,81.53
2023-03-02T19:41:14.167Z,81.60
2023-03-02T19:43:42.787Z,81.47
2023-03-02T19:46:11.668Z,81.60
2023-03-02T19:48:40.227Z,81.96
2023-03-02T19:51:11.108Z,82.38
2023-03-02T19:53:41.115Z,81.34
2023-03-02T19:56:14.319Z,80.69
2023-03-02T19:58:49.500Z,81.35
2023-03-02T20:01:21.393Z,81.29
2023-03-02T20:03:51.538Z,81.41
2023-03-02T20:06:20.741Z,80.85
2023-03-02T20:08:49.127Z,80.42
2023-03-02T20:11:19.609Z,80.78
2023-03-02T20:13:48.176Z,81.12
2023-03-02T20:16:16.743Z,81.15
2023-03-02T20:18:45.527Z,81.59
2023-03-02T20:21:13.741Z,82.08
2023-03-02T20:23:41.980Z,82.35
2023-03-02T20:26:10.387Z,81.41
2023-03-02T20:28:40.013Z,81.36
2023-03-02T20:31:11.939Z,81.14
2023-03-02T20:33:44.222Z,81.61
2023-03-02T20:36:13.876Z,81.76
2023-03-02T20:38:47.339Z,82.03
2023-03-02T20:41:17.657Z,81.92
2023-03-02T20:43:47.521Z,82.33
2023-03-02T20:46:23.284Z,82.76
2023-03-02T20:48:51.812Z,83.18
2023-03-02T20:51:20.618Z,83.78
2023-03-02T20:53:49.022Z,83.90
2023-03-02T20:56:18.524Z,84.17
2023-03-02T20:58:49.241Z,83.69
2023-03-02T21:01:19.097Z,83.39
2023-03-02T21:03:47.786Z,83.29
2023-03-02T21:06:16.455Z,83.27
2023-03-02T21:08:46.401Z,82.99
2023-03-02T21:11:19.130Z,83.36
2023-03-02T21:13:50.074Z,83.91
2023-03-02T21:16:23.024Z,83.54
2023-03-02T21:18:51.716Z,83.52
2023-03-02T21:21:27.102Z,83.53
2023-03-02T21:24:00.807Z,83.09
2023-03-02T21:26:30.174Z,83.08
2023-03-02T21:28:59.800Z,83.02
2023-03-02T21:31:28.067Z,83.08
2023-03-02T21:33:56.245Z,83.11
2023-03-02T21:36:26.016Z,82.60
2023-03-02T21:38:54.323Z,82.75
2023-03-02T21:41:23.249Z,83.08
2023-03-02T21:43:51.849Z,83.22
2023-03-02T21:46:24.309Z,84.03
2023-03-02T21:48:53.357Z,84.21
2023-03-02T21:51:23.484Z,84.40
2023-03-02T21:53:52.896Z,84.67
2023-03-02T21:56:24.158Z,84.45
2023-03-02T21:58:55.428Z,84.24
2023-03-02T22:01:26.195Z,83.63
2023-03-02T22:03:55.104Z,83.56
2023-03-02T22:06:26.439Z,82.85
2023-03-02T22:08:55.596Z,83.62
2023-03-02T22:11:27.358Z,84.09
2023-03-02T22:13:58.361Z,84.35
2023-03-02T22:16:29.838Z,84.14
2023-03-02T22:19:00.575Z,84.10
2023-03-02T22:21:33.377Z,83.36
2023-03-02T22:24:18.832Z,83.73
2023-03-02T22:26:53.698Z,84.26
2023-03-02T22:29:26.433Z,84.60
2023-03-02T22:32:00.424Z,84.21
2023-03-02T22:34:31.602Z,84.24
2023-03-02T22:37:10.720Z,83.96
2023-03-02T22:39:41.730Z,84.65
2023-03-02T22:42:15.571Z,84.34
2023-03-02T22:44:44.405Z,84.09
2023-03-02T22:47:20.803Z,84.39
2023-03-02T22:49:57.560Z,83.90
2023-03-02T22:52:35.171Z,84.14
2023-03-02T22:55:25.728Z,84.10
2023-03-02T22:57:53.929Z,84.24
2023-03-02T23:00:36.011Z,84.55
2023-03-02T23:03:18.080Z,85.11
2023-03-02T23:05:49.050Z,85.39
2023-03-02T23:08:23.358Z,85.30
2023-03-02T23:10:54.773Z,85.26
2023-03-02T23:13:27.369Z,84.81
2023-03-02T23:15:56.468Z,85.12
2023-03-02T23:18:29.479Z,85.47
2023-03-02T23:20:57.694Z,84.70
2023-03-02T23:23:28.651Z,84.89
2023-03-02T23:25:56.794Z,84.84
2023-03-02T23:28:24.921Z,84.83
2023-03-02T23:30:53.061Z,84.99
2023-03-02T23:33:21.160Z,85.49
2023-03-02T23:35:50.671Z,85.48
2023-03-02T23:38:18.806Z,84.34
2023-03-02T23:40:46.935Z,84.30
2023-03-02T23:43:15.019Z,84.14
2023-03-02T23:45:43.170Z,84.07
2023-03-02T23:48:11.290Z,84.04
2023-03-02T23:50:39.409Z,83.91
2023-03-02T23:53:08.961Z,83.66
2023-03-02T23:55:38.743Z,82.77
2023-03-02T23:58:06.820Z,82.79
